createdAt,value
2019-05-19T00:02:12.644Z,3.00
2019-05-19T00:04:41.452Z,2.67
2019-05-19T00:07:10.230Z,3.00
2019-05-19T00:09:39.044Z,2.80
2019-05-19T00:12:07.905Z,2.65
2019-05-19T00:14:36.658Z,3.05
2019-05-19T00:17:05.492Z,2.70
2019-05-19T00:19:34.279Z,3.25
2019-05-19T00:22:03.100Z,2.80
2019-05-19T00:24:31.936Z,2.90
2019-05-19T00:27:00.732Z,3.12
2019-05-19T00:29:29.626Z,3.02
2019-05-19T00:31:58.457Z,2.92
2019-05-19T00:34:27.308Z,2.87
2019-05-19T00:36:56.101Z,3.20
2019-05-19T00:39:25.002Z,2.83
2019-05-19T00:41:53.854Z,2.98
2019-05-19T00:44:22.632Z,2.72
2019-05-19T00:46:51.586Z,3.02
2019-05-19T00:49:20.485Z,3.15
2019-05-19T00:51:49.235Z,2.90
2019-05-19T00:54:18.037Z,2.87
2019-05-19T00:56:47.929Z,2.87
2019-05-19T00:59:16.889Z,3.12
2019-05-19T01:01:45.703Z,3.20
2019-05-19T01:04:14.558Z,3.02
2019-05-19T01:06:43.676Z,3.27
2019-05-19T01:09:12.412Z,3.00
2019-05-19T01:11:41.246Z,3.27
2019-05-19T01:14:10.146Z,3.02
2019-05-19T01:16:38.919Z,3.20
2019-05-19T01:19:07.752Z,3.10
2019-05-19T01:21:38.901Z,3.27
2019-05-19T01:24:07.731Z,2.77
2019-05-19T01:26:36.566Z,2.65
2019-05-19T01:29:05.352Z,3.45
2019-05-19T01:31:34.129Z,2.92
2019-05-19T01:34:02.888Z,3.40
2019-05-19T01:36:31.671Z,2.72
2019-05-19T01:39:00.508Z,2.70
2019-05-19T01:41:29.333Z,2.58
2019-05-19T01:43:58.107Z,2.70
2019-05-19T01:46:26.988Z,3.08
2019-05-19T01:48:55.792Z,3.10
2019-05-19T01:51:24.618Z,3.12
2019-05-19T01:53:53.419Z,2.75
2019-05-19T01:56:22.254Z,2.90
2019-05-19T01:58:51.048Z,2.75
2019-05-19T02:01:19.868Z,2.83
2019-05-19T02:03:48.676Z,3.33
2019-05-19T02:06:17.432Z,3.02
2019-05-19T02:08:46.234Z,2.92
2019-05-19T02:11:15.046Z,3.15
2019-05-19T02:13:43.800Z,2.42
2019-05-19T02:16:12.569Z,3.15
2019-05-19T02:18:41.341Z,3.30
2019-05-19T02:21:10.175Z,3.20
2019-05-19T02:23:38.950Z,3.08
2019-05-19T02:26:07.746Z,3.92
2019-05-19T02:28:36.543Z,2.70
2019-05-19T02:31:05.340Z,3.20
2019-05-19T02:33:35.837Z,3.10
2019-05-19T02:36:04.610Z,2.75
2019-05-19T02:38:33.461Z,3.22
2019-05-19T02:41:04.821Z,3.00
2019-05-19T02:43:34.504Z,3.20
2019-05-19T02:46:05.296Z,2.95
2019-05-19T02:48:35.476Z,2.92
2019-05-19T02:51:06.538Z,3.00
2019-05-19T02:53:35.598Z,2.98
2019-05-19T02:56:04.725Z,3.08
2019-05-19T02:58:34.414Z,3.17
2019-05-19T03:01:03.261Z,3.20
2019-05-19T03:03:32.022Z,3.58
2019-05-19T03:06:02.829Z,3.47
2019-05-19T03:08:31.669Z,3.42
2019-05-19T03:11:00.470Z,3.10
2019-05-19T03:13:29.223Z,3.33
2019-05-19T03:15:58.013Z,3.20
2019-05-19T03:18:26.760Z,3.10
2019-05-19T03:21:09.937Z,2.60
2019-05-19T03:23:26.028Z,3.05
2019-05-19T03:25:54.843Z,3.33
2019-05-19T03:28:23.711Z,3.27
2019-05-19T03:31:03.422Z,3.20
2019-05-19T03:33:42.881Z,3.25
2019-05-19T03:36:11.671Z,3.52
2019-05-19T03:38:40.587Z,2.65
2019-05-19T03:41:09.356Z,3.15
2019-05-19T03:43:38.153Z,2.72
2019-05-19T03:46:06.941Z,2.95
2019-05-19T03:48:35.716Z,2.75
2019-05-19T03:51:04.553Z,3.00
2019-05-19T03:53:33.474Z,2.60
2019-05-19T03:56:02.258Z,3.42
2019-05-19T03:58:31.065Z,3.30
2019-05-19T04:00:59.962Z,2.95
2019-05-19T04:03:28.736Z,3.05
2019-05-19T04:05:57.484Z,2.90
2019-05-19T04:08:26.247Z,2.83
2019-05-19T04:10:55.024Z,3.17
2019-05-19T04:13:23.831Z,2.67
2019-05-19T04:15:52.639Z,3.20
2019-05-19T04:18:21.460Z,3.12
2019-05-19T04:20:50.222Z,3.25
2019-05-19T04:23:19.004Z,3.47
2019-05-19T04:25:47.826Z,3.70
2019-05-19T04:28:16.626Z,3.17
2019-05-19T04:30:45.405Z,3.25
2019-05-19T04:33:14.182Z,3.10
2019-05-19T04:35:43.043Z,3.10
2019-05-19T04:38:11.810Z,3.08
2019-05-19T04:40:40.946Z,3.05
2019-05-19T04:43:09.752Z,2.80
2019-05-19T04:45:38.513Z,3.17
2019-05-19T04:48:09.608Z,3.47
2019-05-19T04:50:37.788Z,2.98
2019-05-19T04:53:06.573Z,2.75
2019-05-19T04:55:35.370Z,3.02
2019-05-19T04:58:04.238Z,2.83
2019-05-19T05:00:33.050Z,3.12
2019-05-19T05:03:01.882Z,2.85
2019-05-19T05:05:30.764Z,2.90
2019-05-19T05:07:59.587Z,2.85
2019-05-19T05:10:28.368Z,3.00
2019-05-19T05:12:57.182Z,3.05
2019-05-19T05:15:25.938Z,2.92
2019-05-19T05:17:54.864Z,2.90
2019-05-19T05:20:23.675Z,2.62
2019-05-19T05:22:52.489Z,2.87
2019-05-19T05:25:21.425Z,2.83
2019-05-19T05:27:50.238Z,2.92
2019-05-19T05:30:19.049Z,2.92
2019-05-19T05:32:47.820Z,3.10
2019-05-19T05:35:16.613Z,2.92
2019-05-19T05:37:45.388Z,2.90
2019-05-19T05:40:14.234Z,3.35
2019-05-19T05:42:43.048Z,2.95
2019-05-19T05:45:12.354Z,3.30
2019-05-19T05:47:41.250Z,3.00
2019-05-19T05:50:10.410Z,3.25
2019-05-19T05:52:39.311Z,2.95
2019-05-19T05:55:08.139Z,3.35
2019-05-19T05:57:36.929Z,3.35
2019-05-19T06:00:09.472Z,2.85
2019-05-19T06:02:38.371Z,3.33
2019-05-19T06:05:07.150Z,2.90
2019-05-19T06:07:35.924Z,2.85
2019-05-19T06:10:07.484Z,3.30
2019-05-19T06:12:36.273Z,2.90
2019-05-19T06:15:06.179Z,2.80
2019-05-19T06:17:34.960Z,2.60
2019-05-19T06:20:05.372Z,3.02
2019-05-19T06:22:34.313Z,3.67
2019-05-19T06:25:03.120Z,2.77
2019-05-19T06:27:31.902Z,3.37
2019-05-19T06:30:00.703Z,2.98
2019-05-19T06:32:33.887Z,2.90
2019-05-19T06:35:02.992Z,3.45
2019-05-19T06:37:31.905Z,3.22
2019-05-19T06:40:00.747Z,3.35
2019-05-19T06:42:29.530Z,3.20
2019-05-19T06:44:58.455Z,3.35
2019-05-19T06:47:27.289Z,3.02
2019-05-19T06:49:56.089Z,2.70
2019-05-19T06:52:24.895Z,3.20
2019-05-19T06:54:53.707Z,2.90
2019-05-19T06:57:22.489Z,3.45
2019-05-19T06:59:51.364Z,3.05
2019-05-19T07:02:20.192Z,2.85
2019-05-19T07:04:49.009Z,2.65
2019-05-19T07:07:17.876Z,3.00
2019-05-19T07:09:57.961Z,2.85
2019-05-19T07:12:17.189Z,2.67
2019-05-19T07:14:46.034Z,2.70
2019-05-19T07:17:14.841Z,2.90
2019-05-19T07:19:43.641Z,2.20
2019-05-19T07:22:12.430Z,2.80
2019-05-19T07:24:41.167Z,2.85
2019-05-19T07:27:10.003Z,3.37
2019-05-19T07:29:38.859Z,2.52
2019-05-19T07:32:07.671Z,2.83
2019-05-19T07:34:36.560Z,2.52
2019-05-19T07:37:05.357Z,2.60
2019-05-19T07:39:34.175Z,2.10
2019-05-19T07:42:02.985Z,2.42
2019-05-19T07:44:31.795Z,2.45
2019-05-19T07:47:00.614Z,2.40
2019-05-19T07:49:29.382Z,2.30
2019-05-19T07:51:58.165Z,2.45
2019-05-19T07:54:27.062Z,2.65
2019-05-19T07:56:55.960Z,2.37
2019-05-19T07:59:24.741Z,2.65
2019-05-19T08:01:53.534Z,2.20
2019-05-19T08:04:22.401Z,2.10
2019-05-19T08:06:51.282Z,2.42
2019-05-19T08:09:20.065Z,2.20
2019-05-19T08:11:48.874Z,2.30
2019-05-19T08:14:17.654Z,2.47
2019-05-19T08:20:06.341Z,2.40
2019-05-19T08:26:35.006Z,2.87
2019-05-19T08:29:03.852Z,2.70
2019-05-19T08:31:32.679Z,2.50
2019-05-19T08:34:01.597Z,2.67
2019-05-19T08:36:30.471Z,2.30
2019-05-19T08:38:59.227Z,2.20
2019-05-19T08:41:28.024Z,1.80
2019-05-19T08:43:56.895Z,2.62
2019-05-19T08:46:25.831Z,2.47
2019-05-19T08:48:57.845Z,2.15
2019-05-19T08:51:25.126Z,2.30
2019-05-19T08:53:53.934Z,2.33
2019-05-19T08:56:22.728Z,2.67
2019-05-19T08:58:51.611Z,2.30
2019-05-19T09:01:20.504Z,2.87
2019-05-19T09:03:49.335Z,2.45
2019-05-19T09:06:18.158Z,2.00
2019-05-19T09:08:46.966Z,2.27
2019-05-19T09:11:15.836Z,2.60
2019-05-19T09:13:44.766Z,2.27
2019-05-19T09:16:13.601Z,2.20
2019-05-19T09:18:42.400Z,2.27
2019-05-19T09:21:11.144Z,2.58
2019-05-19T09:23:40.079Z,2.40
2019-05-19T09:26:08.825Z,2.00
2019-05-19T09:28:37.648Z,2.20
2019-05-19T09:31:06.423Z,2.37
2019-05-19T09:33:35.248Z,2.10
2019-05-19T09:36:04.004Z,2.00
2019-05-19T09:38:32.863Z,2.00
2019-05-19T09:41:01.765Z,2.00
2019-05-19T09:47:11.731Z,2.58
2019-05-19T09:49:40.635Z,2.00
2019-05-19T09:52:09.480Z,2.55
2019-05-19T09:54:45.237Z,2.25
2019-05-19T09:57:08.804Z,2.27
2019-05-19T09:59:37.686Z,2.35
2019-05-19T10:02:06.663Z,1.95
2019-05-19T10:04:35.677Z,2.12
2019-05-19T10:07:05.413Z,2.20
2019-05-19T10:09:41.090Z,2.10
2019-05-19T10:12:10.096Z,1.98
2019-05-19T10:14:38.931Z,2.12
2019-05-19T10:17:07.736Z,2.02
2019-05-19T10:19:36.487Z,2.20
2019-05-19T10:22:05.401Z,2.55
2019-05-19T10:24:34.268Z,2.30
2019-05-19T10:27:03.232Z,2.08
2019-05-19T10:29:32.095Z,2.40
2019-05-19T10:32:00.824Z,2.10
2019-05-19T10:34:29.671Z,2.05
2019-05-19T10:36:58.465Z,2.37
2019-05-19T10:39:27.233Z,2.33
2019-05-19T10:41:55.986Z,2.00
2019-05-19T10:44:24.870Z,2.02
2019-05-19T10:46:53.685Z,2.60
2019-05-19T10:49:22.465Z,2.60
2019-05-19T10:51:51.482Z,2.05
2019-05-19T10:54:20.307Z,2.40
2019-05-19T10:56:49.480Z,2.33
2019-05-19T10:59:18.328Z,2.20
2019-05-19T11:01:47.136Z,2.10
2019-05-19T11:04:15.948Z,2.25
2019-05-19T11:06:44.737Z,2.10
2019-05-19T11:09:13.536Z,2.65
2019-05-19T11:11:42.284Z,2.60
2019-05-19T11:14:11.096Z,2.25
2019-05-19T11:16:40.001Z,2.85
2019-05-19T11:19:09.280Z,2.75
2019-05-19T11:21:38.071Z,2.20
2019-05-19T11:24:06.820Z,2.30
2019-05-19T11:26:35.670Z,2.30
2019-05-19T11:29:04.550Z,2.45
2019-05-19T11:31:33.313Z,2.35
2019-05-19T11:34:02.168Z,2.33
2019-05-19T11:36:31.099Z,2.40
2019-05-19T11:38:59.946Z,2.20
2019-05-19T11:41:28.740Z,2.67
2019-05-19T11:44:03.359Z,2.47
2019-05-19T11:46:32.162Z,2.60
2019-05-19T11:49:00.974Z,2.35
2019-05-19T11:51:29.835Z,2.37
2019-05-19T11:53:58.886Z,2.40
2019-05-19T11:56:27.701Z,2.00
2019-05-19T11:58:56.439Z,2.42
2019-05-19T12:01:25.338Z,2.60
2019-05-19T12:03:55.544Z,2.58
2019-05-19T12:06:38.171Z,2.30
2019-05-19T12:08:54.832Z,2.27
2019-05-19T12:11:23.614Z,1.77
2019-05-19T12:13:52.375Z,2.30
2019-05-19T12:16:21.765Z,2.33
2019-05-19T12:18:50.645Z,2.75
2019-05-19T12:21:19.436Z,2.65
2019-05-19T12:23:48.260Z,2.58
2019-05-19T12:26:23.022Z,2.30
2019-05-19T12:28:49.266Z,2.17
2019-05-19T12:31:18.005Z,2.33
2019-05-19T12:33:52.084Z,2.30
2019-05-19T12:36:17.308Z,2.55
2019-05-19T12:38:46.204Z,2.72
2019-05-19T12:41:14.949Z,2.30
2019-05-19T12:43:43.785Z,2.50
2019-05-19T12:46:16.326Z,2.33
2019-05-19T12:48:43.076Z,2.67
2019-05-19T12:51:11.932Z,2.70
2019-05-19T12:53:40.814Z,2.42
2019-05-19T12:56:09.583Z,2.22
2019-05-19T12:58:38.378Z,2.30
2019-05-19T13:01:07.237Z,2.50
2019-05-19T13:10:33.525Z,2.60
2019-05-19T13:13:02.348Z,2.33
2019-05-19T13:15:31.099Z,2.40
2019-05-19T13:17:59.874Z,2.25
2019-05-19T13:20:28.720Z,2.22
2019-05-19T13:22:57.482Z,2.17
2019-05-19T13:25:26.249Z,2.37
2019-05-19T13:31:23.800Z,2.40
2019-05-19T13:33:52.589Z,2.12
2019-05-19T13:36:21.375Z,2.45
2019-05-19T13:38:50.192Z,2.22
2019-05-19T13:41:19.025Z,2.22
2019-05-19T13:43:47.813Z,2.42
2019-05-19T13:46:16.679Z,2.40
2019-05-19T13:48:45.548Z,2.50
2019-05-19T13:51:14.291Z,2.25
2019-05-19T13:53:43.115Z,1.90
2019-05-19T13:56:11.884Z,2.27
2019-05-19T13:58:40.883Z,2.30
2019-05-19T14:01:09.666Z,2.00
2019-05-19T14:03:38.448Z,2.30
2019-05-19T14:06:07.256Z,2.30
2019-05-19T14:08:36.089Z,1.92
2019-05-19T14:11:05.043Z,2.40
2019-05-19T14:13:33.907Z,2.47
2019-05-19T14:16:02.669Z,1.87
2019-05-19T14:18:31.478Z,1.80
2019-05-19T14:21:00.245Z,2.20
2019-05-19T14:23:29.049Z,2.80
2019-05-19T14:25:57.819Z,2.02
2019-05-19T14:28:26.790Z,2.10
2019-05-19T14:30:55.565Z,2.10
2019-05-19T14:33:24.332Z,2.15
2019-05-19T14:35:53.142Z,2.40
2019-05-19T14:38:21.912Z,2.10
2019-05-19T14:40:50.738Z,2.37
2019-05-19T14:43:21.150Z,2.00
2019-05-19T14:45:49.936Z,2.45
2019-05-19T14:48:18.722Z,1.80
2019-05-19T14:50:47.517Z,1.92
2019-05-19T14:53:16.304Z,2.17
2019-05-19T14:55:45.089Z,2.67
2019-05-19T15:01:44.117Z,2.27
2019-05-19T15:04:12.962Z,1.90
2019-05-19T15:06:41.754Z,1.98
2019-05-19T15:09:10.538Z,2.10
2019-05-19T15:11:39.487Z,2.22
2019-05-19T15:14:08.312Z,2.42
2019-05-19T15:16:37.093Z,2.00
2019-05-19T15:19:05.944Z,2.17
2019-05-19T15:21:34.845Z,2.17
2019-05-19T15:24:03.625Z,2.17
2019-05-19T15:26:32.404Z,2.50
2019-05-19T15:29:01.236Z,2.30
2019-05-19T15:31:30.004Z,2.50
2019-05-19T15:33:58.800Z,2.35
2019-05-19T15:36:27.604Z,2.10
2019-05-19T15:38:56.425Z,2.35
2019-05-19T15:41:25.372Z,2.85
2019-05-19T15:43:54.170Z,2.02
2019-05-19T15:46:23.001Z,2.55
2019-05-19T15:48:51.764Z,2.65
2019-05-19T15:51:28.600Z,3.05
2019-05-19T15:53:51.035Z,2.62
2019-05-19T15:56:19.890Z,2.15
2019-05-19T15:58:48.639Z,2.00
2019-05-19T16:01:17.413Z,2.00
2019-05-19T16:03:46.253Z,2.30
2019-05-19T16:06:15.052Z,2.40
2019-05-19T16:08:43.814Z,1.90
2019-05-19T16:11:12.599Z,2.42
2019-05-19T16:13:41.363Z,1.98
2019-05-19T16:16:10.212Z,1.90
2019-05-19T16:18:39.035Z,2.33
2019-05-19T16:21:07.831Z,2.20
2019-05-19T16:23:36.641Z,2.37
2019-05-19T16:26:05.424Z,2.50
2019-05-19T16:28:34.240Z,2.83
2019-05-19T16:31:03.060Z,2.10
2019-05-19T16:33:31.902Z,2.92
2019-05-19T16:36:00.706Z,2.55
2019-05-19T16:38:29.512Z,2.42
2019-05-19T16:40:58.332Z,2.20
2019-05-19T16:43:27.111Z,2.75
2019-05-19T16:45:55.898Z,2.45
2019-05-19T16:48:24.678Z,2.40
2019-05-19T16:50:53.576Z,2.60
2019-05-19T16:53:22.342Z,3.17
2019-05-19T16:55:51.229Z,3.65
2019-05-19T16:58:21.637Z,3.95
2019-05-19T17:00:50.530Z,4.58
2019-05-19T17:03:19.328Z,3.22
2019-05-19T17:05:48.258Z,2.45
2019-05-19T17:08:17.009Z,6.08
2019-05-19T17:10:46.070Z,7.70
2019-05-19T17:16:44.054Z,4.92
2019-05-19T17:19:12.846Z,3.27
2019-05-19T17:21:41.673Z,5.72
2019-05-19T17:24:10.542Z,5.92
2019-05-19T17:26:39.332Z,5.35
2019-05-19T17:29:08.225Z,4.95
2019-05-19T17:31:36.997Z,6.37
2019-05-19T17:34:05.872Z,4.20
2019-05-19T17:36:35.163Z,5.90
2019-05-19T17:39:05.485Z,4.10
2019-05-19T17:41:34.335Z,3.15
2019-05-19T17:44:03.107Z,3.85
2019-05-19T17:46:32.176Z,2.92
2019-05-19T17:49:01.167Z,3.77
2019-05-19T17:51:30.067Z,3.12
2019-05-19T17:53:58.826Z,3.67
2019-05-19T17:56:28.952Z,2.92
2019-05-19T17:58:58.195Z,3.33
2019-05-19T18:01:27.186Z,3.27
2019-05-19T18:03:56.120Z,4.75
2019-05-19T18:06:28.275Z,3.50
2019-05-19T18:08:55.743Z,3.02
2019-05-19T18:11:24.645Z,3.33
2019-05-19T18:13:53.497Z,3.47
2019-05-19T18:16:23.270Z,4.60
2019-05-19T18:18:52.206Z,4.65
2019-05-19T18:21:21.117Z,3.60
2019-05-19T18:23:49.931Z,3.47
2019-05-19T18:26:18.782Z,3.45
2019-05-19T18:28:47.576Z,3.87
2019-05-19T18:31:16.501Z,3.45
2019-05-19T18:33:45.311Z,3.55
2019-05-19T18:36:14.088Z,4.15
2019-05-19T18:38:42.952Z,4.03
2019-05-19T18:41:11.729Z,4.20
2019-05-19T18:43:40.548Z,3.80
2019-05-19T18:46:09.388Z,4.30
2019-05-19T18:48:38.159Z,4.55
2019-05-19T18:51:06.915Z,4.65
2019-05-19T18:53:36.121Z,3.98
2019-05-19T18:56:04.855Z,3.92
2019-05-19T18:58:33.739Z,3.72
2019-05-19T19:01:02.549Z,3.92
2019-05-19T19:03:31.478Z,3.95
2019-05-19T19:06:00.386Z,3.70
2019-05-19T19:08:29.425Z,3.85
2019-05-19T19:10:58.315Z,4.30
2019-05-19T19:13:27.108Z,4.00
2019-05-19T19:15:55.995Z,3.90
2019-05-19T19:18:24.876Z,4.03
2019-05-19T19:20:53.628Z,3.25
2019-05-19T19:23:22.452Z,3.40
2019-05-19T19:25:51.213Z,3.77
2019-05-19T19:34:54.576Z,5.05
2019-05-19T19:37:23.360Z,3.90
2019-05-19T19:39:52.227Z,4.25
2019-05-19T19:42:21.161Z,3.98
2019-05-19T19:44:49.907Z,4.28
2019-05-19T19:47:18.699Z,3.67
2019-05-19T19:49:47.593Z,3.85
2019-05-19T19:52:16.405Z,4.03
2019-05-19T19:54:45.330Z,3.80
2019-05-19T19:57:14.380Z,4.58
2019-05-19T19:59:43.171Z,4.50
2019-05-19T20:02:12.137Z,4.08
2019-05-19T20:04:41.071Z,4.00
2019-05-19T20:07:09.933Z,3.83
2019-05-19T20:09:38.805Z,4.15
2019-05-19T20:12:07.679Z,4.17
2019-05-19T20:14:38.574Z,3.62
2019-05-19T20:17:07.156Z,4.50
2019-05-19T20:19:35.974Z,3.90
2019-05-19T20:22:04.792Z,3.98
2019-05-19T20:24:33.562Z,4.40
2019-05-19T20:27:02.386Z,4.92
2019-05-19T20:29:31.212Z,4.55
2019-05-19T20:31:59.979Z,4.10
2019-05-19T20:34:28.908Z,4.30
2019-05-19T20:36:57.733Z,3.60
2019-05-19T20:39:26.550Z,4.10
2019-05-19T20:41:55.380Z,4.00
2019-05-19T20:44:24.455Z,4.22
2019-05-19T20:46:53.223Z,4.10
2019-05-19T20:49:22.132Z,4.37
2019-05-19T20:51:51.046Z,3.50
2019-05-19T20:54:19.988Z,3.60
2019-05-19T20:56:48.832Z,4.00
2019-05-19T20:59:17.677Z,4.03
2019-05-19T21:01:46.553Z,3.20
2019-05-19T21:04:15.387Z,3.52
2019-05-19T21:06:44.198Z,3.80
2019-05-19T21:09:13.184Z,4.08
2019-05-19T21:11:41.889Z,3.77
2019-05-19T21:14:10.640Z,3.40
2019-05-19T21:16:39.317Z,3.15
2019-05-19T21:19:08.050Z,3.30
2019-05-19T21:21:36.733Z,3.17
2019-05-19T21:24:05.484Z,3.25
2019-05-19T21:26:35.746Z,3.33
2019-05-19T21:29:04.505Z,3.00
2019-05-19T21:31:33.261Z,3.37
2019-05-19T21:34:01.924Z,3.12
2019-05-19T21:36:30.624Z,3.10
2019-05-19T21:38:59.221Z,3.30
2019-05-19T21:41:27.931Z,3.10
2019-05-19T21:43:56.684Z,3.42
2019-05-19T21:46:25.521Z,3.37
2019-05-19T21:48:54.541Z,3.27
2019-05-19T21:51:23.300Z,3.12
2019-05-19T21:53:54.046Z,3.62
2019-05-19T21:56:22.722Z,3.27
2019-05-19T21:58:51.522Z,3.52
2019-05-19T22:01:23.170Z,3.37
2019-05-19T22:03:50.746Z,3.40
2019-05-19T22:06:21.099Z,3.17
2019-05-19T22:08:49.851Z,3.02
2019-05-19T22:11:18.670Z,3.45
2019-05-19T22:13:50.458Z,3.10
2019-05-19T22:16:19.226Z,3.12
2019-05-19T22:18:47.905Z,2.90
2019-05-19T22:21:16.640Z,3.50
2019-05-19T22:23:45.384Z,3.20
2019-05-19T22:26:14.155Z,3.42
2019-05-19T22:28:42.890Z,3.00
2019-05-19T22:31:11.638Z,3.27
2019-05-19T22:33:40.448Z,3.30
2019-05-19T22:36:09.235Z,2.70
2019-05-19T22:38:37.987Z,3.10
2019-05-19T22:41:06.739Z,3.25
2019-05-19T22:43:35.467Z,3.27
2019-05-19T22:46:04.216Z,3.02
2019-05-19T22:48:32.968Z,3.50
2019-05-19T22:51:01.694Z,3.20
2019-05-19T22:53:32.615Z,3.20
2019-05-19T22:56:00.706Z,3.62
2019-05-19T22:58:29.476Z,3.42
2019-05-19T23:00:58.313Z,3.10
2019-05-19T23:03:26.890Z,3.67
2019-05-19T23:05:55.610Z,3.80
2019-05-19T23:08:24.368Z,3.45
2019-05-19T23:10:53.151Z,3.30
2019-05-19T23:13:22.037Z,3.47
2019-05-19T23:15:51.010Z,3.42
2019-05-19T23:18:19.846Z,3.22
2019-05-19T23:20:48.640Z,3.67
2019-05-19T23:23:17.303Z,3.70
2019-05-19T23:25:46.015Z,4.00
2019-05-19T23:28:14.801Z,3.62
2019-05-19T23:30:43.484Z,3.55
2019-05-19T23:33:12.287Z,3.30
2019-05-19T23:35:40.923Z,3.85
2019-05-19T23:38:09.685Z,3.45
2019-05-19T23:40:38.395Z,3.58
2019-05-19T23:43:07.163Z,3.62
2019-05-19T23:45:35.984Z,3.20
2019-05-19T23:48:04.753Z,3.72
2019-05-19T23:50:33.511Z,3.42
2019-05-19T23:53:02.136Z,3.67
2019-05-19T23:55:30.895Z,3.42
2019-05-19T23:57:59.547Z,3.62
